Waterville, Vermont
Current Conditions -  °F | °C
As of 5:54 AM on Tuesday 21 Oct 2014 (Local Time) from KMVL Reporting Station
Light Rain Light Rain  
Wind Chill: 40°   Ceiling: 5500
Heat Index: 40°   Visibility: 8mi
Dew Point: 37°   Wind: 0mph
Humidity: 89%   Direction: NA
Pressure: 29.97"   Gusts: NA
Location:  44.69°N, 72.77°W
Report Text: KMVL 210954Z AUTO 00000KT 8SM -RA SCT047 OVC055 04/03 A2997 RMK AO2 SLP154 P0002 T00440028
Loading
Personal Weather Stations






























Interactive Weather Map
Tropical Storm Tracking
New forecast layout! Learn more

10-Day Weather Forecast

Advertisements
Track Severe Weather on mobile